Time;durP1;ratioP1;P1;durP2;ratioP2;P2;SDS_P1;SDS_P2;PMS_P1;PMS_P2;Temp;Humidity;BMP_temperature;BMP_pressure;BME280_temperature;BME280_humidity;BME280_pressure;Samples;Min_cycle;Max_cycle;Signal;HPM_P1;HPM_P2
2022/11/07 00:02:11;;;;;;;0.30;0.30;;;10.50;99.90;;;;;;5093869;28;20426;-78
2022/11/07 00:04:37;;;;;;;1.55;0.45;;;10.50;99.90;;;;;;5093204;28;20101;-78
2022/11/07 00:07:04;;;;;;;0.10;0.10;;;10.50;99.90;;;;;;5075389;28;20082;-78
2022/11/07 00:09:29;;;;;;;0.13;0.13;;;10.60;99.90;;;;;;5093183;28;20541;-78
2022/11/07 00:11:55;;;;;;;0.00;0.00;;;10.60;99.90;;;;;;5092959;28;20032;-78
2022/11/07 00:14:21;;;;;;;0.10;0.10;;;10.60;99.90;;;;;;5093041;28;20085;-78
2022/11/07 00:16:47;;;;;;;0.45;0.20;;;10.70;99.90;;;;;;5093144;28;20083;-78
2022/11/07 00:19:16;;;;;;;0.00;0.00;;;10.70;99.90;;;;;;5076303;28;20052;-78
2022/11/07 00:21:42;;;;;;;0.00;0.00;;;10.70;99.90;;;;;;5076080;28;20105;-77
2022/11/07 00:24:08;;;;;;;0.85;0.25;;;10.70;99.90;;;;;;5093250;28;20492;-78
2022/11/07 00:26:35;;;;;;;0.25;0.25;;;10.80;99.90;;;;;;5076263;28;20070;-78
2022/11/07 00:29:01;;;;;;;0.00;0.00;;;10.80;99.90;;;;;;5076265;28;20052;-78
2022/11/07 00:31:27;;;;;;;0.35;0.30;;;10.80;99.90;;;;;;5075883;28;20052;-78
2022/11/07 00:33:53;;;;;;;0.65;0.00;;;10.90;99.90;;;;;;5076162;28;20051;-78
2022/11/07 00:36:22;;;;;;;0.00;0.00;;;10.80;99.90;;;;;;5092803;28;20040;-78
2022/11/07 00:38:47;;;;;;;0.35;0.17;;;10.90;99.90;;;;;;5092817;28;20048;-78
2022/11/07 00:41:14;;;;;;;0.03;0.03;;;10.80;99.90;;;;;;5075891;28;20495;-77
2022/11/07 00:43:39;;;;;;;0.60;0.60;;;10.90;99.90;;;;;;5093015;28;20047;-78
2022/11/07 00:46:07;;;;;;;4.97;0.45;;;10.90;99.90;;;;;;5076049;28;20044;-78
2022/11/07 00:48:33;;;;;;;0.00;0.00;;;10.90;99.90;;;;;;5075965;28;20048;-78
2022/11/07 00:51:10;;;;;;;3.65;0.70;;;10.90;99.90;;;;;;5075980;28;20506;-78
2022/11/07 00:53:37;;;;;;;0.17;0.10;;;11.00;99.90;;;;;;5075610;28;20404;-78
2022/11/07 00:56:05;;;;;;;0.00;0.00;;;10.90;99.90;;;;;;5075871;28;20044;-78
2022/11/07 00:58:31;;;;;;;0.90;0.30;;;10.90;99.90;;;;;;5092702;28;20488;-78
2022/11/07 01:00:58;;;;;;;0.00;0.00;;;10.90;99.90;;;;;;5075811;28;20055;-78
2022/11/07 01:06:09;;;;;;;0.00;0.00;;;10.80;99.90;;;;;;5092347;28;20063;-78
2022/11/07 01:08:35;;;;;;;0.00;0.00;;;10.80;99.90;;;;;;5075760;28;20105;-78
2022/11/07 01:11:05;;;;;;;0.57;0.00;;;10.80;99.90;;;;;;5075760;28;20372;-78
2022/11/07 01:13:32;;;;;;;0.00;0.00;;;10.70;99.90;;;;;;5076092;28;20094;-78
2022/11/07 01:15:58;;;;;;;0.10;0.08;;;10.70;99.90;;;;;;5092284;28;20377;-78
2022/11/07 01:18:24;;;;;;;0.00;0.00;;;10.70;99.90;;;;;;5095582;28;20059;-78
2022/11/07 01:20:49;;;;;;;0.00;0.00;;;10.70;99.90;;;;;;5096310;28;20048;-78
2022/11/07 01:23:16;;;;;;;0.00;0.00;;;10.70;99.90;;;;;;5096455;28;20040;-78
2022/11/07 01:25:41;;;;;;;0.00;0.00;;;10.60;99.90;;;;;;5096617;28;20156;-78
2022/11/07 01:28:08;;;;;;;0.10;0.05;;;10.60;99.90;;;;;;5096377;28;20045;-78
2022/11/07 01:30:39;;;;;;;0.17;0.10;;;10.70;99.90;;;;;;5096384;28;20048;-78
2022/11/07 01:33:05;;;;;;;0.00;0.00;;;10.70;99.90;;;;;;5096275;28;20054;-78
2022/11/07 01:35:32;;;;;;;0.03;0.03;;;10.70;99.90;;;;;;5079301;28;20051;-78
2022/11/07 01:37:57;;;;;;;0.00;0.00;;;10.70;99.90;;;;;;5096266;28;20044;-78
2022/11/07 01:40:23;;;;;;;0.00;0.00;;;10.80;99.90;;;;;;5096273;28;20044;-78
2022/11/07 01:42:49;;;;;;;0.00;0.00;;;10.80;99.90;;;;;;5096284;28;20384;-78
2022/11/07 01:45:22;;;;;;;0.00;0.00;;;10.80;99.90;;;;;;5096186;28;20043;-78
2022/11/07 01:47:51;;;;;;;0.00;0.00;;;10.80;99.90;;;;;;5096401;28;20052;-78
2022/11/07 01:50:17;;;;;;;0.00;0.00;;;10.90;99.90;;;;;;5078890;28;20050;-78
2022/11/07 01:52:48;;;;;;;0.00;0.00;;;10.90;99.90;;;;;;5095964;28;20098;-78
2022/11/07 01:55:15;;;;;;;1.25;0.30;;;10.90;99.90;;;;;;5095505;28;20530;-78
2022/11/07 01:57:58;;;;;;;7.88;0.38;;;11.00;99.90;;;;;;5079103;28;20048;-78
2022/11/07 02:00:24;;;;;;;0.10;0.10;;;11.00;99.90;;;;;;5095641;28;20048;-78
2022/11/07 02:02:56;;;;;;;0.00;0.00;;;11.00;99.90;;;;;;5078772;28;20492;-78
2022/11/07 02:05:33;;;;;;;1.13;0.43;;;11.00;99.90;;;;;;5096168;28;20110;-78
2022/11/07 02:08:01;;;;;;;0.00;0.00;;;11.00;99.90;;;;;;5095736;28;20051;-78
2022/11/07 02:10:27;;;;;;;0.00;0.00;;;11.00;99.90;;;;;;5078726;28;20044;-79
2022/11/07 02:12:56;;;;;;;0.43;0.00;;;11.00;99.90;;;;;;5095249;28;20041;-78
2022/11/07 02:15:22;;;;;;;0.00;0.00;;;11.00;99.90;;;;;;5096053;28;20055;-78
2022/11/07 02:17:48;;;;;;;0.00;0.00;;;11.10;99.90;;;;;;5095479;28;20047;-78
2022/11/07 02:20:14;;;;;;;2.63;0.85;;;11.10;99.90;;;;;;5095345;28;20040;-78
2022/11/07 02:22:52;;;;;;;0.30;0.00;;;11.10;99.90;;;;;;5078665;28;20067;-78
2022/11/07 02:25:18;;;;;;;0.00;0.00;;;11.10;99.90;;;;;;5078476;28;20043;-78
2022/11/07 02:27:47;;;;;;;0.30;0.30;;;11.10;99.90;;;;;;5094945;28;20096;-78
2022/11/07 02:30:16;;;;;;;0.00;0.00;;;11.10;99.90;;;;;;5077769;28;20044;-78
2022/11/07 02:32:42;;;;;;;0.00;0.00;;;11.10;99.90;;;;;;5094921;28;20491;-78
2022/11/07 02:35:40;;;;;;;0.10;0.10;;;11.10;99.90;;;;;;5078496;28;20147;-78
2022/11/07 02:38:22;;;;;;;0.00;0.00;;;11.10;99.90;;;;;;5078127;28;20074;-78
2022/11/07 02:40:55;;;;;;;0.03;0.00;;;11.10;99.90;;;;;;5095185;28;20048;-78
2022/11/07 02:43:25;;;;;;;0.00;0.00;;;11.10;99.90;;;;;;5078186;28;20044;-78
2022/11/07 02:45:52;;;;;;;0.00;0.00;;;11.10;99.90;;;;;;5078104;28;20438;-78
2022/11/07 02:48:18;;;;;;;0.00;0.00;;;11.10;99.90;;;;;;5077955;28;20044;-78
2022/11/07 02:50:43;;;;;;;0.30;0.30;;;11.10;99.90;;;;;;5078625;28;20373;-78
2022/11/07 02:53:09;;;;;;;0.20;0.00;;;11.10;99.90;;;;;;5095077;28;20468;-78
2022/11/07 02:55:35;;;;;;;0.00;0.00;;;11.10;99.90;;;;;;5077936;28;20066;-78
2022/11/07 02:58:01;;;;;;;0.05;0.05;;;11.00;99.90;;;;;;5077881;28;20036;-78
2022/11/07 03:00:26;;;;;;;0.00;0.00;;;11.00;99.90;;;;;;5094664;28;20043;-78
2022/11/07 03:02:52;;;;;;;0.00;0.00;;;11.00;99.90;;;;;;5077982;28;20487;-78
2022/11/07 03:05:19;;;;;;;0.00;0.00;;;11.00;99.90;;;;;;5094630;28;20060;-78
2022/11/07 03:07:46;;;;;;;0.00;0.00;;;11.00;99.90;;;;;;5077696;28;20416;-78
2022/11/07 03:10:14;;;;;;;1.33;0.38;;;11.00;99.90;;;;;;5077761;28;20116;-78
2022/11/07 03:12:39;;;;;;;0.00;0.00;;;11.00;99.90;;;;;;5077607;28;20135;-78
2022/11/07 03:15:07;;;;;;;0.00;0.00;;;11.00;99.90;;;;;;5077504;28;20181;-78
2022/11/07 03:17:33;;;;;;;0.00;0.00;;;11.00;99.90;;;;;;5093963;28;20060;-78
2022/11/07 03:19:59;;;;;;;0.00;0.00;;;11.00;99.90;;;;;;5094140;28;20040;-78
2022/11/07 03:22:25;;;;;;;0.00;0.00;;;11.00;99.90;;;;;;5094133;28;20044;-79
2022/11/07 03:24:51;;;;;;;0.10;0.10;;;11.00;99.90;;;;;;5093900;28;20059;-78
2022/11/07 03:27:18;;;;;;;0.00;0.00;;;11.10;99.90;;;;;;5094043;28;20048;-78
2022/11/07 03:29:43;;;;;;;0.00;0.00;;;11.10;99.90;;;;;;5093982;28;20096;-78
2022/11/07 03:32:10;;;;;;;0.00;0.00;;;11.10;99.90;;;;;;5094652;28;20040;-78
2022/11/07 03:34:36;;;;;;;0.25;0.00;;;11.00;99.90;;;;;;5093970;28;20135;-78
2022/11/07 03:37:02;;;;;;;0.57;0.57;;;11.00;99.90;;;;;;5094141;28;20035;-78
2022/11/07 03:39:28;;;;;;;0.00;0.00;;;11.00;99.90;;;;;;5076788;28;20498;-78
2022/11/07 03:41:53;;;;;;;0.03;0.00;;;11.10;99.90;;;;;;5093855;28;20051;-78
2022/11/07 03:44:19;;;;;;;0.00;0.00;;;11.10;99.90;;;;;;5076797;28;20388;-78
2022/11/07 03:46:45;;;;;;;0.25;0.20;;;11.10;99.90;;;;;;5077396;28;20036;-78
2022/11/07 03:49:10;;;;;;;1.30;0.25;;;11.10;99.90;;;;;;5076816;28;20096;-78
2022/11/07 03:51:36;;;;;;;1.27;0.82;;;11.10;99.90;;;;;;5093500;28;20055;-78
2022/11/07 03:54:01;;;;;;;1.00;0.43;;;11.10;99.90;;;;;;5093527;28;20070;-78
2022/11/07 03:56:27;;;;;;;0.03;0.03;;;11.10;99.90;;;;;;5093414;28;20468;-78
2022/11/07 03:58:53;;;;;;;0.00;0.00;;;11.00;99.90;;;;;;5076727;28;20054;-78
2022/11/07 04:01:18;;;;;;;0.00;0.00;;;11.10;99.90;;;;;;5077496;28;20044;-77
2022/11/07 04:03:44;;;;;;;0.03;0.00;;;11.00;99.90;;;;;;5093335;28;20432;-77
2022/11/07 04:06:09;;;;;;;0.10;0.08;;;11.10;99.90;;;;;;5093436;28;20047;-77
2022/11/07 04:08:35;;;;;;;0.00;0.00;;;11.00;99.90;;;;;;5093351;28;20047;-77
2022/11/07 04:11:01;;;;;;;0.52;0.45;;;11.10;99.90;;;;;;5076623;28;20051;-78
2022/11/07 04:18:56;;;;;;;0.35;0.30;;;11.10;99.90;;;;;;5093388;28;20097;-78
2022/11/07 04:21:22;;;;;;;0.00;0.00;;;11.10;99.90;;;;;;5076231;28;20056;-78
2022/11/07 04:23:48;;;;;;;0.00;0.00;;;11.00;99.90;;;;;;5093119;28;20422;-78
2022/11/07 04:28:58;;;;;;;2.90;0.45;;;11.00;99.90;;;;;;5093244;28;20061;-78
2022/11/07 04:31:23;;;;;;;0.00;0.00;;;11.00;99.90;;;;;;5076236;28;20130;-77
2022/11/07 04:33:49;;;;;;;0.00;0.00;;;11.00;99.90;;;;;;5092767;28;20039;-78
2022/11/07 04:36:14;;;;;;;0.35;0.35;;;11.00;99.90;;;;;;5092776;28;20098;-77
2022/11/07 04:38:40;;;;;;;0.08;0.00;;;11.10;99.90;;;;;;5092575;28;20043;-78
2022/11/07 04:41:15;;;;;;;0.20;0.20;;;11.20;99.90;;;;;;5092925;28;20048;-78
2022/11/07 04:43:41;;;;;;;0.30;0.30;;;11.20;99.90;;;;;;5093205;28;20044;-78
2022/11/07 04:46:06;;;;;;;0.00;0.00;;;11.20;99.90;;;;;;5076447;28;20059;-77
2022/11/07 04:48:32;;;;;;;9.60;1.08;;;11.20;99.90;;;;;;5092715;28;20044;-78
2022/11/07 04:50:58;;;;;;;0.00;0.00;;;11.20;99.90;;;;;;5092889;28;20075;-78
2022/11/07 04:53:23;;;;;;;0.10;0.00;;;11.20;99.90;;;;;;5098567;28;20497;-78
2022/11/07 04:55:49;;;;;;;0.00;0.00;;;11.20;99.90;;;;;;5083156;28;20054;-78
2022/11/07 04:58:14;;;;;;;0.10;0.10;;;11.20;99.90;;;;;;5099587;28;20043;-77
2022/11/07 05:00:40;;;;;;;0.10;0.10;;;11.20;99.90;;;;;;5099730;28;20083;-77
2022/11/07 05:03:06;;;;;;;0.00;0.00;;;11.20;99.90;;;;;;5082622;28;20052;-77
2022/11/07 05:05:31;;;;;;;0.55;0.38;;;11.10;99.90;;;;;;5099604;28;20040;-77
2022/11/07 05:07:57;;;;;;;0.00;0.00;;;11.10;99.90;;;;;;5099450;28;20131;-77
2022/11/07 05:10:27;;;;;;;0.03;0.03;;;11.10;99.90;;;;;;5099459;28;20040;-77
2022/11/07 05:12:53;;;;;;;0.00;0.00;;;11.10;99.90;;;;;;5082460;28;20052;-77
2022/11/07 05:15:19;;;;;;;0.45;0.22;;;11.10;99.90;;;;;;5099056;28;20040;-77
2022/11/07 05:17:45;;;;;;;0.10;0.00;;;11.10;99.90;;;;;;5099248;28;20051;-79
2022/11/07 05:20:24;;;;;;;0.05;0.00;;;11.20;99.90;;;;;;5099276;28;20077;-77
2022/11/07 05:25:34;;;;;;;5.38;0.55;;;11.20;99.90;;;;;;5099518;28;20052;-77
2022/11/07 05:27:59;;;;;;;0.00;0.00;;;11.10;99.90;;;;;;5082357;28;20105;-77
2022/11/07 05:30:25;;;;;;;0.38;0.30;;;11.20;99.90;;;;;;5099022;28;20040;-80
2022/11/07 05:32:51;;;;;;;0.10;0.10;;;11.10;99.90;;;;;;5082498;28;20068;-77
2022/11/07 05:35:17;;;;;;;0.00;0.00;;;11.10;99.90;;;;;;5099869;28;20059;-77
2022/11/07 05:37:42;;;;;;;0.00;0.00;;;11.20;99.90;;;;;;5099171;28;20044;-77
2022/11/07 05:40:08;;;;;;;0.45;0.20;;;11.10;99.90;;;;;;5099039;28;20414;-77
2022/11/07 05:42:34;;;;;;;0.00;0.00;;;11.10;99.90;;;;;;5099054;28;20048;-77
2022/11/07 05:44:59;;;;;;;0.00;0.00;;;11.00;99.90;;;;;;5099018;28;20196;-77
2022/11/07 05:47:25;;;;;;;0.20;0.10;;;11.10;99.90;;;;;;5099217;28;20530;-77
2022/11/07 05:49:51;;;;;;;0.03;0.03;;;11.10;99.90;;;;;;5082194;28;20054;-78
2022/11/07 05:52:16;;;;;;;0.00;0.00;;;11.10;99.90;;;;;;5099052;28;20040;-78
2022/11/07 05:54:42;;;;;;;0.00;0.00;;;11.10;99.90;;;;;;5081358;28;20090;-78
2022/11/07 05:57:08;;;;;;;0.00;0.00;;;11.10;99.90;;;;;;5099350;28;20044;-78
2022/11/07 05:59:33;;;;;;;0.20;0.20;;;11.10;99.90;;;;;;5098919;28;20560;-79
2022/11/07 06:01:59;;;;;;;0.22;0.20;;;11.10;99.90;;;;;;5099404;28;20392;-78
2022/11/07 06:04:24;;;;;;;0.10;0.00;;;11.10;99.90;;;;;;5077916;28;20044;-78
2022/11/07 06:06:50;;;;;;;0.00;0.00;;;11.20;99.90;;;;;;5095735;28;20048;-78
2022/11/07 06:09:16;;;;;;;0.00;0.00;;;11.20;99.90;;;;;;5095880;28;20059;-78
2022/11/07 06:11:41;;;;;;;0.00;0.00;;;11.20;99.90;;;;;;5095527;28;20056;-81
2022/11/07 06:14:07;;;;;;;0.15;0.15;;;11.20;99.90;;;;;;5095742;28;20058;-79
2022/11/07 06:16:33;;;;;;;0.00;0.00;;;11.30;99.90;;;;;;5078089;28;20395;-79
2022/11/07 06:18:58;;;;;;;0.15;0.10;;;11.30;99.90;;;;;;5095513;28;20127;-77
2022/11/07 06:21:24;;;;;;;0.52;0.25;;;11.30;99.90;;;;;;5078597;28;20052;-77
2022/11/07 06:23:50;;;;;;;0.00;0.00;;;11.30;99.90;;;;;;5095511;28;20042;-77
2022/11/07 06:26:15;;;;;;;0.00;0.00;;;11.30;99.90;;;;;;5095263;28;20395;-78
2022/11/07 06:28:41;;;;;;;0.00;0.00;;;11.30;99.90;;;;;;5095526;28;20048;-77
2022/11/07 06:31:06;;;;;;;0.47;0.40;;;11.30;99.90;;;;;;5095084;28;20047;-78
2022/11/07 06:33:32;;;;;;;1.05;0.40;;;11.20;99.90;;;;;;5095188;28;20065;-78
2022/11/07 06:36:11;;;;;;;0.00;0.00;;;11.20;99.90;;;;;;5077929;28;20052;-77
2022/11/07 06:38:37;;;;;;;0.00;0.00;;;11.30;99.90;;;;;;5095445;28;20047;-78
2022/11/07 06:41:08;;;;;;;0.00;0.00;;;11.20;99.90;;;;;;5095236;28;20083;-78
2022/11/07 06:43:35;;;;;;;0.30;0.30;;;11.30;99.90;;;;;;5078139;28;20135;-78
2022/11/07 06:46:03;;;;;;;0.10;0.10;;;11.30;99.90;;;;;;5095507;28;20138;-78
2022/11/07 06:48:29;;;;;;;0.10;0.00;;;11.30;99.90;;;;;;5078373;28;20056;-78
2022/11/07 06:50:59;;;;;;;1.38;0.45;;;11.30;99.90;;;;;;5078195;28;20117;-78
2022/11/07 06:53:26;;;;;;;0.00;0.00;;;11.40;99.90;;;;;;5077923;28;20093;-78
2022/11/07 06:55:53;;;;;;;0.32;0.32;;;11.40;99.90;;;;;;5093550;28;20372;-78
2022/11/07 06:58:18;;;;;;;1.55;0.45;;;11.40;99.90;;;;;;5077889;28;20388;-78
2022/11/07 07:00:44;;;;;;;0.05;0.00;;;11.40;99.90;;;;;;5094894;28;20062;-78
2022/11/07 07:03:10;;;;;;;0.00;0.00;;;11.40;99.90;;;;;;5077818;28;20048;-78
2022/11/07 07:05:36;;;;;;;0.10;0.00;;;11.40;99.90;;;;;;5077463;28;20075;-78
2022/11/07 07:08:03;;;;;;;0.80;0.25;;;11.40;99.90;;;;;;5077798;28;20082;-78
2022/11/07 07:10:29;;;;;;;0.10;0.10;;;11.40;99.90;;;;;;5077593;28;20040;-79
2022/11/07 07:12:55;;;;;;;0.30;0.30;;;11.50;99.90;;;;;;5077688;28;20047;-79
2022/11/07 07:15:21;;;;;;;0.65;0.52;;;11.30;99.90;;;;;;5094033;28;20040;-78
2022/11/07 07:17:47;;;;;;;0.10;0.10;;;11.40;99.90;;;;;;5077963;28;20082;-78
2022/11/07 07:20:13;;;;;;;0.00;0.00;;;11.30;99.90;;;;;;5077464;28;20062;-79
2022/11/07 07:22:39;;;;;;;0.22;0.20;;;11.30;99.90;;;;;;5077391;28;20391;-78
2022/11/07 07:25:05;;;;;;;0.00;0.00;;;11.40;99.90;;;;;;5094248;28;20117;-79
2022/11/07 07:27:31;;;;;;;1.98;0.63;;;11.30;99.90;;;;;;5077066;28;20047;-79
2022/11/07 07:29:57;;;;;;;0.00;0.00;;;11.30;99.90;;;;;;5077831;28;20131;-78
2022/11/07 07:32:25;;;;;;;0.08;0.00;;;11.30;99.90;;;;;;5077333;28;20048;-78
2022/11/07 07:34:51;;;;;;;0.00;0.00;;;11.30;99.90;;;;;;5094094;28;20127;-78
2022/11/07 07:37:17;;;;;;;0.00;0.00;;;11.40;99.90;;;;;;5093614;28;20572;-78
2022/11/07 07:39:43;;;;;;;0.00;0.00;;;11.40;99.90;;;;;;5093852;28;20105;-78
2022/11/07 07:42:09;;;;;;;0.00;0.00;;;11.50;99.90;;;;;;5094469;28;20054;-78
2022/11/07 07:44:35;;;;;;;0.00;0.00;;;11.50;99.90;;;;;;5077451;28;20486;-78
2022/11/07 07:47:01;;;;;;;0.08;0.03;;;11.60;99.90;;;;;;5077426;28;20047;-78
2022/11/07 07:49:26;;;;;;;0.52;0.20;;;11.60;99.90;;;;;;5076436;28;20510;-78
2022/11/07 07:51:52;;;;;;;0.20;0.20;;;11.60;99.90;;;;;;5093503;28;20044;-78
2022/11/07 07:54:18;;;;;;;0.08;0.08;;;11.60;99.90;;;;;;5076365;28;20087;-79
2022/11/07 07:56:43;;;;;;;6.13;1.50;;;11.70;99.90;;;;;;5093625;28;20044;-78
2022/11/07 07:59:09;;;;;;;0.20;0.20;;;11.70;99.90;;;;;;5076716;28;20067;-78
2022/11/07 08:01:34;;;;;;;0.77;0.20;;;11.70;99.90;;;;;;5093438;28;20044;-78
2022/11/07 08:04:00;;;;;;;3.30;1.52;;;11.80;99.90;;;;;;5076768;28;20052;-78
2022/11/07 08:06:26;;;;;;;0.68;0.25;;;11.70;99.90;;;;;;5076703;28;20052;-78
2022/11/07 08:08:51;;;;;;;0.35;0.35;;;11.70;99.90;;;;;;5093370;28;20040;-78
2022/11/07 08:11:17;;;;;;;0.00;0.00;;;11.80;99.90;;;;;;5093339;28;20055;-78
2022/11/07 08:13:42;;;;;;;0.00;0.00;;;11.80;99.90;;;;;;5093403;28;20479;-78
2022/11/07 08:16:08;;;;;;;0.17;0.10;;;11.80;99.90;;;;;;5093502;28;20131;-78
2022/11/07 08:18:35;;;;;;;0.00;0.00;;;11.90;99.90;;;;;;5092399;28;20423;-78
2022/11/07 08:21:01;;;;;;;0.00;0.00;;;11.90;99.90;;;;;;5092698;28;20082;-78
2022/11/07 08:23:26;;;;;;;0.00;0.00;;;11.90;99.90;;;;;;5076145;28;20088;-79
2022/11/07 08:25:54;;;;;;;1.83;0.60;;;12.00;99.90;;;;;;5092988;28;20065;-78
2022/11/07 08:28:22;;;;;;;0.03;0.03;;;12.00;99.90;;;;;;5075689;28;20063;-79
2022/11/07 08:31:03;;;;;;;2.38;0.35;;;12.00;99.90;;;;;;5076404;28;20052;-78
2022/11/07 08:33:29;;;;;;;0.00;0.00;;;12.00;99.90;;;;;;5093049;28;20050;-79
2022/11/07 08:35:56;;;;;;;2.10;0.40;;;12.00;99.90;;;;;;5076068;28;20051;-79
2022/11/07 08:38:22;;;;;;;0.00;0.00;;;12.10;99.90;;;;;;5076069;28;20040;-79
2022/11/07 08:40:49;;;;;;;0.47;0.47;;;12.10;99.90;;;;;;5075978;28;20051;-79
2022/11/07 08:43:16;;;;;;;0.00;0.00;;;12.10;99.90;;;;;;5075954;28;20559;-79
2022/11/07 08:45:43;;;;;;;0.00;0.00;;;12.10;99.90;;;;;;5092818;28;20048;-79
2022/11/07 08:48:09;;;;;;;0.00;0.00;;;12.10;99.90;;;;;;5075811;28;20052;-79
2022/11/07 08:50:34;;;;;;;9.32;0.98;;;12.10;99.90;;;;;;5092696;28;20036;-79
2022/11/07 08:53:00;;;;;;;0.00;0.00;;;12.20;99.90;;;;;;5092819;28;20036;-78
2022/11/07 08:55:26;;;;;;;0.00;0.00;;;12.20;99.90;;;;;;5075282;28;20052;-79
2022/11/07 08:57:55;;;;;;;0.00;0.00;;;12.20;99.90;;;;;;5088629;28;20563;-79
2022/11/07 09:00:21;;;;;;;0.15;0.05;;;12.20;99.90;;;;;;5091129;28;20040;-80
2022/11/07 09:02:47;;;;;;;0.00;0.00;;;12.20;99.90;;;;;;5073957;28;20048;-82
2022/11/07 09:05:12;;;;;;;0.00;0.00;;;12.20;99.90;;;;;;5090690;28;20040;-80
2022/11/07 09:07:38;;;;;;;0.00;0.00;;;12.30;99.90;;;;;;5090439;28;20040;-80
2022/11/07 09:10:04;;;;;;;1.08;0.30;;;12.20;99.90;;;;;;5090763;28;20521;-79
2022/11/07 09:12:30;;;;;;;2.67;0.73;;;12.30;99.90;;;;;;5090582;28;20139;-79
2022/11/07 09:14:55;;;;;;;0.00;0.00;;;12.40;99.90;;;;;;5090592;28;20446;-81
2022/11/07 09:17:21;;;;;;;0.00;0.00;;;12.50;99.90;;;;;;5090426;28;20040;-79
2022/11/07 09:19:47;;;;;;;0.00;0.00;;;12.40;99.90;;;;;;5073282;28;20141;-80
2022/11/07 09:22:13;;;;;;;0.10;0.10;;;12.50;99.90;;;;;;5073466;28;20113;-79
2022/11/07 09:24:38;;;;;;;0.00;0.00;;;12.50;99.90;;;;;;5090932;28;20083;-79
2022/11/07 09:27:04;;;;;;;0.00;0.00;;;12.60;99.90;;;;;;5090607;28;20137;-79
2022/11/07 09:29:29;;;;;;;0.00;0.00;;;12.70;99.90;;;;;;5073203;28;20052;-79
2022/11/07 09:31:55;;;;;;;0.00;0.00;;;12.90;99.90;;;;;;5073741;28;20051;-79
2022/11/07 09:34:21;;;;;;;0.00;0.00;;;13.00;99.90;;;;;;5073380;28;20040;-80
2022/11/07 09:36:46;;;;;;;0.00;0.00;;;13.00;99.90;;;;;;5073448;28;20368;-79
2022/11/07 09:39:12;;;;;;;0.00;0.00;;;13.10;99.90;;;;;;5075322;28;20373;-79
2022/11/07 09:41:40;;;;;;;0.43;0.30;;;13.10;99.90;;;;;;5094427;28;20414;-79
2022/11/07 09:44:09;;;;;;;0.00;0.00;;;13.20;99.90;;;;;;5076925;28;20491;-79
2022/11/07 09:46:52;;;;;;;0.00;0.00;;;13.20;99.90;;;;;;5077823;28;20076;-79
2022/11/07 09:49:43;;;;;;;0.00;0.00;;;13.10;99.90;;;;;;5077195;28;20097;-79
2022/11/07 09:52:23;;;;;;;1.75;0.60;;;13.10;99.90;;;;;;5076919;28;20051;-79
2022/11/07 09:55:01;;;;;;;0.00;0.00;;;13.10;99.90;;;;;;5077579;28;20127;-79
2022/11/07 09:57:31;;;;;;;0.00;0.00;;;13.10;99.90;;;;;;5093660;28;20466;-79
2022/11/07 10:00:02;;;;;;;0.00;0.00;;;13.10;99.90;;;;;;5076649;28;20056;-79
2022/11/07 10:02:32;;;;;;;0.30;0.30;;;13.10;99.90;;;;;;5094165;28;20400;-79
2022/11/07 10:05:01;;;;;;;0.05;0.00;;;13.10;99.90;;;;;;5094173;28;20189;-79
2022/11/07 10:07:54;;;;;;;6.07;0.20;;;13.00;99.90;;;;;;5087765;28;20570;-79
2022/11/07 10:10:27;;;;;;;0.00;0.00;;;13.10;99.90;;;;;;5094525;28;20445;-79
2022/11/07 10:13:19;;;;;;;0.10;0.00;;;13.10;99.90;;;;;;5077646;28;20059;-79
2022/11/07 10:16:15;;;;;;;0.22;0.20;;;13.10;99.90;;;;;;5078609;28;20135;-78
2022/11/07 10:19:11;;;;;;;0.00;0.00;;;13.20;99.90;;;;;;5096006;28;20040;-78
2022/11/07 10:22:10;;;;;;;0.00;0.00;;;13.30;99.90;;;;;;5078735;28;20098;-78
2022/11/07 10:24:59;;;;;;;0.00;0.00;;;13.40;99.90;;;;;;5083965;28;20048;-79
2022/11/07 10:27:26;;;;;;;0.10;0.10;;;13.50;99.90;;;;;;5073008;28;20455;-79
2022/11/07 10:29:54;;;;;;;0.00;0.00;;;13.60;99.90;;;;;;5074376;28;20081;-79
2022/11/07 10:32:26;;;;;;;0.70;0.45;;;13.70;99.90;;;;;;5093058;28;20052;-78
2022/11/07 10:34:59;;;;;;;0.00;0.00;;;13.90;99.90;;;;;;5077314;28;20048;-79
2022/11/07 10:37:24;;;;;;;0.00;0.00;;;14.00;99.90;;;;;;5094044;28;20051;-79
2022/11/07 10:39:50;;;;;;;0.00;0.00;;;14.10;99.90;;;;;;5077624;28;20457;-79
2022/11/07 10:42:21;;;;;;;0.20;0.20;;;14.10;99.90;;;;;;5077797;28;20044;-79
2022/11/07 10:44:48;;;;;;;0.10;0.08;;;14.20;99.90;;;;;;5077195;28;20514;-79
2022/11/07 10:47:18;;;;;;;0.10;0.10;;;14.50;99.90;;;;;;5094517;28;20131;-79
2022/11/07 10:50:12;;;;;;;0.05;0.05;;;14.60;99.90;;;;;;5077413;28;20047;-80
2022/11/07 10:52:40;;;;;;;0.00;0.00;;;14.60;99.90;;;;;;5095070;28;20048;-80
2022/11/07 10:55:12;;;;;;;0.00;0.00;;;14.60;99.90;;;;;;5094569;28;20040;-80
2022/11/07 10:57:38;;;;;;;0.00;0.00;;;14.60;99.90;;;;;;5077533;28;20475;-80
2022/11/07 11:00:19;;;;;;;0.00;0.00;;;14.60;99.90;;;;;;5077828;28;20059;-80
2022/11/07 11:02:47;;;;;;;0.00;0.00;;;14.70;99.90;;;;;;5077652;28;20060;-80
2022/11/07 11:05:32;;;;;;;0.00;0.00;;;14.60;99.90;;;;;;5077493;28;20105;-80
2022/11/07 11:08:15;;;;;;;0.10;0.10;;;14.50;99.90;;;;;;5094343;28;20044;-79
2022/11/07 11:10:41;;;;;;;0.00;0.00;;;14.50;99.90;;;;;;5077743;28;20138;-80
2022/11/07 11:13:28;;;;;;;0.00;0.00;;;14.40;99.90;;;;;;5077500;28;20140;-79
2022/11/07 11:15:58;;;;;;;0.00;0.00;;;14.40;99.90;;;;;;5094245;28;20047;-79
2022/11/07 11:18:24;;;;;;;0.30;0.25;;;14.30;99.90;;;;;;5094246;28;20043;-80
2022/11/07 11:21:00;;;;;;;0.00;0.00;;;14.20;99.90;;;;;;5093554;28;20052;-79
2022/11/07 11:23:29;;;;;;;0.00;0.00;;;14.20;99.90;;;;;;5094449;28;20182;-79
2022/11/07 11:26:06;;;;;;;0.63;0.45;;;14.10;99.90;;;;;;5077631;28;20040;-79
2022/11/07 11:28:43;;;;;;;1.00;0.25;;;14.10;99.90;;;;;;5094371;28;20047;-80
2022/11/07 11:31:31;;;;;;;0.00;0.00;;;14.10;99.90;;;;;;5077202;28;20514;-80
2022/11/07 11:34:17;;;;;;;0.00;0.00;;;14.10;99.90;;;;;;5039508;28;20184;-79
2022/11/07 11:37:15;;;;;;;0.00;0.00;;;14.10;99.90;;;;;;5038636;28;20051;-79
2022/11/07 11:39:48;;;;;;;0.45;0.30;;;14.20;99.90;;;;;;4996210;28;20065;-80
2022/11/07 11:42:31;;;;;;;0.00;0.00;;;14.20;99.90;;;;;;4996750;28;20049;-79
2022/11/07 11:45:02;;;;;;;0.22;0.22;;;14.20;99.90;;;;;;4996332;28;20596;-79
2022/11/07 11:47:37;;;;;;;0.10;0.10;;;14.30;99.90;;;;;;4996698;28;20045;-79
2022/11/07 11:50:19;;;;;;;0.22;0.22;;;14.20;99.90;;;;;;4996578;28;20065;-79
2022/11/07 11:52:46;;;;;;;0.00;0.00;;;14.30;99.90;;;;;;4996242;28;20111;-80
2022/11/07 11:55:18;;;;;;;0.00;0.00;;;14.30;99.90;;;;;;4995688;28;20089;-80
2022/11/07 11:58:01;;;;;;;0.15;0.15;;;14.20;99.90;;;;;;4994010;28;20050;-80
2022/11/07 12:00:28;;;;;;;0.00;0.00;;;14.30;99.90;;;;;;4991699;28;20490;-79
2022/11/07 12:03:32;;;;;;;0.00;0.00;;;14.30;99.90;;;;;;4975552;28;20084;-78
2022/11/07 12:06:10;;;;;;;0.30;0.30;;;14.30;99.90;;;;;;4955960;28;20050;-79
2022/11/07 12:08:47;;;;;;;5.50;0.10;;;14.30;99.90;;;;;;4956951;28;20059;-79
2022/11/07 12:11:29;;;;;;;0.00;0.00;;;14.30;99.90;;;;;;4968691;28;20058;-79
2022/11/07 12:14:15;;;;;;;0.00;0.00;;;14.20;99.90;;;;;;4960770;28;20051;-80
2022/11/07 12:16:46;;;;;;;0.10;0.10;;;14.20;99.90;;;;;;4940759;28;20051;-79
2022/11/07 12:19:12;;;;;;;0.73;0.40;;;14.30;99.90;;;;;;4972550;28;20534;-79
2022/11/07 12:21:48;;;;;;;1.27;0.45;;;14.40;99.90;;;;;;4972819;28;20061;-80
2022/11/07 12:24:23;;;;;;;0.00;0.00;;;14.40;99.90;;;;;;4973208;28;20093;-79
2022/11/07 12:27:10;;;;;;;0.00;0.00;;;14.40;99.90;;;;;;4973369;28;20129;-79
2022/11/07 12:29:53;;;;;;;0.03;0.00;;;14.50;99.90;;;;;;4972701;28;20191;-79
2022/11/07 12:32:32;;;;;;;1.02;0.47;;;14.60;99.90;;;;;;4973588;28;20125;-79
2022/11/07 12:35:01;;;;;;;0.05;0.00;;;14.70;99.90;;;;;;4972985;28;20057;-79
2022/11/07 12:37:29;;;;;;;0.50;0.50;;;14.80;99.90;;;;;;4972857;28;20138;-81
2022/11/07 12:40:07;;;;;;;0.00;0.00;;;14.90;99.90;;;;;;4971654;28;20515;-80
2022/11/07 12:42:54;;;;;;;0.05;0.00;;;14.90;99.90;;;;;;4996224;28;20179;-79
2022/11/07 12:45:35;;;;;;;6.50;0.22;;;14.80;99.90;;;;;;5016679;28;20040;-78
2022/11/07 12:48:14;;;;;;;0.00;0.00;;;14.80;99.90;;;;;;5018285;28;20512;-79
2022/11/07 12:51:14;;;;;;;0.00;0.00;;;14.70;99.90;;;;;;5018915;28;20072;-79
2022/11/07 12:54:16;;;;;;;0.00;0.00;;;14.70;99.90;;;;;;5050571;28;20060;-78
2022/11/07 12:56:44;;;;;;;0.00;0.00;;;14.70;99.90;;;;;;5060647;28;20044;-79
2022/11/07 12:59:31;;;;;;;1.08;0.77;;;14.60;99.90;;;;;;5076402;28;20075;-79
2022/11/07 13:02:23;;;;;;;0.00;0.00;;;14.50;99.90;;;;;;5075989;28;20040;-79
2022/11/07 13:04:54;;;;;;;0.10;0.00;;;14.50;99.90;;;;;;5034696;28;20045;-80
2022/11/07 13:07:29;;;;;;;0.03;0.03;;;14.50;99.90;;;;;;5032999;28;20053;-78
2022/11/07 13:09:58;;;;;;;0.75;0.32;;;14.40;99.90;;;;;;5034713;28;20056;-79
2022/11/07 13:12:36;;;;;;;0.17;0.17;;;14.40;99.90;;;;;;5018025;28;20049;-78
2022/11/07 13:15:04;;;;;;;0.00;0.00;;;14.40;99.90;;;;;;5038320;28;20041;-79